Huvudsida
METAR-TAF:

METAR-TAF

Flygplatser :

Bangkok-Suvarnabhumis flygplats

Bangkok-Suvarnabhumi, Thailand

latitud: 13-40-52N, longitud: 100-44-50E, höjd: 2 m

Aktuellt väderrapport

Denna rapport gjordes för 48 minuter sedan, klockan 04:00 UTC
Vind 5 kt från ost i byarna ända upp till 15 kt
Temperatur 33°C
Fuktighet 59%
Tryck 1011 hPa
Sikt: 7000 m
Få moln på en höjd av 2000 ft, Cumulonimbus.

METAR: VTBS 150400Z 09005G15KT 7000 FEW020CB 33/24 Q1011 NOSIG

Tid: 11:48 (04:48 UTC)

Väderprognos

Denna rapport gjordes för 5 timmar och 48 minuter sedan, klockan 23:00 UTC
Prognos gäller från 15 kl. 00 UTC till 16 kl. 06 UTC
Vind 5 kt från ost
Sikt 10 km eller mer
Få moln på en höjd av 2000 ft
Blir
från 15 kl. 06 UTC till 15 kl. 08 UTC
Vind 8 kt från syd
Blir
från 15 kl. 18 UTC till 15 kl. 20 UTC
Vind 5 kt från nordost

TAF: VTBS 142300Z 1500/1606 08005KT 9999 FEW020 BECMG 1506/1508 18008KT BECMG 1518/1520 05005KT

Aktuella väderrapporter och prognoser från 4000 flygplatser (METAR- och TAF-rapporter).

De tillgängliga stationerna syns som gula och röda prickar på kartan.

För musen över prickarna för att se namnen på stationerna.

Klicka sedan för att få väderrapporter och prognoser.

För att ändra kartan: Klicka på de gröna knapparna med ett svart kors på för att zooma in; den gröna knappen med ett streck på för att zooma ut; eller på de gröna pilarna för angränsande kartor.


METAR-TAF: